createdAt,value
2019-04-25T00:01:52.383Z,100.00
2019-04-25T00:04:22.522Z,100.00
2019-04-25T00:06:52.833Z,100.00
2019-04-25T00:09:23.285Z,100.00
2019-04-25T00:11:52.621Z,100.00
2019-04-25T00:14:23.583Z,100.00
2019-04-25T00:16:53.590Z,100.00
2019-04-25T00:19:22.969Z,100.00
2019-04-25T00:21:59.682Z,100.00
2019-04-25T00:24:47.245Z,100.00
2019-04-25T00:27:16.620Z,100.00
2019-04-25T00:29:46.777Z,100.00
2019-04-25T00:32:16.173Z,100.00
2019-04-25T00:34:46.474Z,100.00
2019-04-25T00:37:16.002Z,100.00
2019-04-25T00:39:46.148Z,100.00
2019-04-25T00:42:15.757Z,100.00
2019-04-25T00:44:45.947Z,100.00
2019-04-25T00:47:15.374Z,100.00
2019-04-25T00:49:45.257Z,100.00
2019-04-25T00:52:15.309Z,100.00
2019-04-25T00:54:44.621Z,100.00
2019-04-25T00:57:14.381Z,100.00
2019-04-25T00:59:46.882Z,100.00
2019-04-25T01:02:17.797Z,100.00
2019-04-25T01:04:47.259Z,100.00
2019-04-25T01:07:16.645Z,100.00
2019-04-25T01:09:45.984Z,100.00
2019-04-25T01:12:18.001Z,100.00
2019-04-25T01:14:47.345Z,100.00
2019-04-25T01:17:16.735Z,100.00
2019-04-25T01:19:46.795Z,100.00
2019-04-25T01:22:16.163Z,100.00
2019-04-25T01:24:45.689Z,100.00
2019-04-25T01:27:15.234Z,100.00
2019-04-25T01:29:46.216Z,100.00
2019-04-25T01:32:17.281Z,100.00
2019-04-25T01:34:48.553Z,100.00
2019-04-25T01:37:19.566Z,100.00
2019-04-25T01:39:51.105Z,100.00
2019-04-25T01:42:25.072Z,100.00
2019-04-25T01:44:56.843Z,100.00
2019-04-25T01:47:26.820Z,100.00
2019-04-25T01:49:56.711Z,100.00
2019-04-25T01:52:26.106Z,100.00
2019-04-25T01:54:56.251Z,100.00
2019-04-25T01:57:26.405Z,100.00
2019-04-25T01:59:56.292Z,100.00
2019-04-25T02:02:27.326Z,100.00
2019-04-25T02:04:58.001Z,100.00
2019-04-25T02:07:27.775Z,100.00
2019-04-25T02:09:57.370Z,100.00
2019-04-25T02:12:28.427Z,100.00
2019-04-25T02:14:57.929Z,100.00
2019-04-25T02:17:27.267Z,100.00
2019-04-25T02:19:57.078Z,100.00
2019-04-25T02:22:27.155Z,100.00
2019-04-25T02:24:57.131Z,100.00
2019-04-25T02:27:26.472Z,100.00
2019-04-25T02:29:56.371Z,100.00
2019-04-25T02:32:26.546Z,100.00
2019-04-25T02:35:00.485Z,100.00
2019-04-25T02:37:27.997Z,100.00
2019-04-25T02:40:00.012Z,100.00
2019-04-25T02:42:28.495Z,100.00
2019-04-25T02:45:02.156Z,100.00
2019-04-25T02:47:35.315Z,100.00
2019-04-25T02:50:19.770Z,100.00
2019-04-25T02:52:50.791Z,100.00
2019-04-25T02:55:30.896Z,100.00
2019-04-25T02:57:54.130Z,100.00
2019-04-25T03:00:27.579Z,100.00
2019-04-25T03:02:59.038Z,100.00
2019-04-25T03:05:28.539Z,100.00
2019-04-25T03:07:59.645Z,100.00
2019-04-25T03:10:29.032Z,100.00
2019-04-25T03:12:59.998Z,100.00
2019-04-25T03:15:29.658Z,100.00
2019-04-25T03:18:00.178Z,100.00
2019-04-25T03:20:49.363Z,100.00
2019-04-25T03:23:20.359Z,100.00
2019-04-25T03:25:49.743Z,100.00
2019-04-25T03:28:19.101Z,100.00
2019-04-25T03:30:48.459Z,100.00
2019-04-25T03:33:19.736Z,100.00
2019-04-25T03:35:48.839Z,100.00
2019-04-25T03:38:18.197Z,100.00
2019-04-25T03:40:47.579Z,100.00
2019-04-25T03:43:16.942Z,100.00
2019-04-25T03:45:46.299Z,100.00
2019-04-25T03:48:15.636Z,100.00
2019-04-25T03:50:45.073Z,100.00
2019-04-25T03:53:14.427Z,100.00
2019-04-25T03:55:44.339Z,100.00
2019-04-25T03:58:14.607Z,100.00
2019-04-25T04:00:44.792Z,100.00
2019-04-25T04:03:15.193Z,100.00
2019-04-25T04:05:44.562Z,100.00
2019-04-25T04:08:15.562Z,100.00
2019-04-25T04:10:45.133Z,100.00
2019-04-25T04:13:15.739Z,100.00
2019-04-25T04:15:45.247Z,100.00
2019-04-25T04:18:17.319Z,100.00
2019-04-25T04:20:59.963Z,100.00
2019-04-25T04:23:46.014Z,100.00
2019-04-25T04:26:15.704Z,100.00
2019-04-25T04:28:45.023Z,100.00
2019-04-25T04:31:15.427Z,100.00
2019-04-25T04:33:44.796Z,100.00
2019-04-25T04:36:15.043Z,100.00
2019-04-25T04:38:45.244Z,100.00
2019-04-25T04:41:15.461Z,99.98
2019-04-25T04:43:45.593Z,99.87
2019-04-25T04:46:17.141Z,99.76
2019-04-25T04:48:45.975Z,99.67
2019-04-25T04:51:15.756Z,99.61
2019-04-25T04:53:45.388Z,99.47
2019-04-25T04:56:15.596Z,99.32
2019-04-25T04:58:45.793Z,99.16
2019-04-25T05:01:18.632Z,98.95
2019-04-25T05:03:49.670Z,98.71
2019-04-25T05:06:24.016Z,98.46
2019-04-25T05:08:58.681Z,98.08
2019-04-25T05:11:28.058Z,97.58
2019-04-25T05:13:57.407Z,96.84
2019-04-25T05:16:26.772Z,96.23
2019-04-25T05:18:56.133Z,95.68
2019-04-25T05:21:25.458Z,95.08
2019-04-25T05:23:54.789Z,94.41
2019-04-25T05:26:25.079Z,94.01
2019-04-25T05:28:54.932Z,93.51
2019-04-25T05:31:25.950Z,93.15
2019-04-25T05:33:55.345Z,92.83
2019-04-25T05:36:26.341Z,92.59
2019-04-25T05:38:55.723Z,92.29
2019-04-25T05:41:26.738Z,91.62
2019-04-25T05:43:56.077Z,90.49
2019-04-25T05:46:26.318Z,89.89
2019-04-25T05:48:55.693Z,89.18
2019-04-25T05:51:25.914Z,88.71
2019-04-25T05:53:55.292Z,88.57
2019-04-25T05:56:26.965Z,87.77
2019-04-25T05:58:55.751Z,87.46
2019-04-25T06:01:28.950Z,87.31
2019-04-25T06:03:56.154Z,86.99
2019-04-25T06:06:26.110Z,86.74
2019-04-25T06:08:57.109Z,85.91
2019-04-25T06:11:36.921Z,85.72
2019-04-25T06:14:10.962Z,85.12
2019-04-25T06:16:40.851Z,84.60
2019-04-25T06:19:16.313Z,83.51
2019-04-25T06:21:43.504Z,82.82
2019-04-25T06:24:25.891Z,81.97
2019-04-25T06:27:13.902Z,81.85
2019-04-25T06:29:57.331Z,81.91
2019-04-25T06:32:15.883Z,81.56
2019-04-25T06:34:45.508Z,80.88
2019-04-25T06:37:15.837Z,80.48
2019-04-25T06:39:45.205Z,79.76
2019-04-25T06:42:14.606Z,79.01
2019-04-25T06:44:45.653Z,77.52
2019-04-25T06:47:20.242Z,74.49
2019-04-25T06:49:50.426Z,74.49
2019-04-25T06:52:19.805Z,73.41
2019-04-25T06:54:49.146Z,72.40
2019-04-25T06:57:18.537Z,72.17
2019-04-25T06:59:47.930Z,71.77
2019-04-25T07:02:17.270Z,71.99
2019-04-25T07:04:46.620Z,71.99
2019-04-25T07:07:16.009Z,71.67
2019-04-25T07:09:45.377Z,71.77
2019-04-25T07:12:14.743Z,70.65
2019-04-25T07:14:44.138Z,70.32
2019-04-25T07:17:14.309Z,70.23
2019-04-25T07:19:44.158Z,70.64
2019-04-25T07:22:15.238Z,70.74
2019-04-25T07:24:44.755Z,70.63
2019-04-25T07:27:18.464Z,70.86
2019-04-25T07:30:05.337Z,70.22
2019-04-25T07:32:39.101Z,69.18
2019-04-25T07:35:08.544Z,69.60
2019-04-25T07:37:41.566Z,67.77
2019-04-25T07:40:09.954Z,67.49
2019-04-25T07:42:39.348Z,65.96
2019-04-25T07:45:10.672Z,66.97
2019-04-25T07:47:40.191Z,66.74
2019-04-25T07:50:10.127Z,66.87
2019-04-25T07:52:39.556Z,66.53
2019-04-25T07:55:09.224Z,63.93
2019-04-25T07:57:38.687Z,61.28
2019-04-25T08:00:14.140Z,61.01
2019-04-25T08:02:43.731Z,58.78
2019-04-25T08:05:15.737Z,56.63
2019-04-25T08:11:31.939Z,54.50
2019-04-25T08:24:30.768Z,56.09
2019-04-25T08:27:00.223Z,56.45
2019-04-25T08:33:15.971Z,58.02
2019-04-25T08:36:03.390Z,58.61
2019-04-25T08:38:16.463Z,59.39
2019-04-25T08:40:45.843Z,59.31
2019-04-25T08:43:15.173Z,59.70
2019-04-25T08:45:44.573Z,59.68
2019-04-25T08:48:13.937Z,60.10
2019-04-25T08:50:53.896Z,59.85
2019-04-25T08:53:24.909Z,60.08
2019-04-25T08:56:01.617Z,60.83
2019-04-25T08:58:39.107Z,60.85
2019-04-25T09:01:14.099Z,61.23
2019-04-25T09:03:45.086Z,61.01
2019-04-25T09:06:14.494Z,60.55
2019-04-25T09:08:46.432Z,60.29
2019-04-25T09:11:15.953Z,60.57
2019-04-25T09:13:45.325Z,60.88
2019-04-25T09:16:15.530Z,61.29
2019-04-25T09:18:46.509Z,61.87
2019-04-25T09:21:15.807Z,61.50
2019-04-25T09:23:45.215Z,61.05
2019-04-25T09:26:15.616Z,60.86
2019-04-25T09:28:46.356Z,60.52
2019-04-25T09:31:15.989Z,59.92
2019-04-25T09:33:46.649Z,58.50
2019-04-25T09:44:42.109Z,57.09
2019-04-25T09:47:13.630Z,57.49
2019-04-25T09:49:44.905Z,57.45
2019-04-25T09:52:15.947Z,55.92
2019-04-25T09:54:55.675Z,55.48
2019-04-25T09:57:36.356Z,55.06
2019-04-25T10:00:09.528Z,55.71
2019-04-25T10:02:38.923Z,55.23
2019-04-25T10:05:08.409Z,55.70
2019-04-25T10:07:38.492Z,56.44
2019-04-25T10:10:08.617Z,56.76
2019-04-25T10:12:38.784Z,56.38
2019-04-25T10:15:29.036Z,56.77
2019-04-25T10:17:58.394Z,56.84
2019-04-25T10:20:27.854Z,57.17
2019-04-25T10:22:57.328Z,56.38
2019-04-25T10:25:26.766Z,56.43
2019-04-25T10:27:56.167Z,56.41
2019-04-25T10:30:26.067Z,56.51
2019-04-25T10:32:55.536Z,56.22
2019-04-25T10:35:24.876Z,56.20
2019-04-25T10:37:55.016Z,56.15
2019-04-25T10:40:27.189Z,56.17
2019-04-25T10:42:57.728Z,56.66
2019-04-25T10:45:27.044Z,56.69
2019-04-25T10:47:56.650Z,56.24
2019-04-25T10:50:27.032Z,55.91
2019-04-25T10:52:56.386Z,55.77
2019-04-25T10:55:25.773Z,55.78
2019-04-25T10:57:56.333Z,55.89
2019-04-25T11:04:28.452Z,55.16
2019-04-25T11:06:57.836Z,55.20
2019-04-25T11:09:27.309Z,54.39
2019-04-25T11:11:56.694Z,54.91
2019-04-25T11:14:27.720Z,53.92
2019-04-25T11:16:57.070Z,53.75
2019-04-25T11:19:26.444Z,52.90
2019-04-25T11:21:55.791Z,52.85
2019-04-25T11:24:25.169Z,51.73
2019-04-25T11:26:55.349Z,51.36
2019-04-25T11:29:24.848Z,52.35
2019-04-25T11:31:54.205Z,51.64
2019-04-25T11:34:24.349Z,52.25
2019-04-25T11:36:54.544Z,52.42
2019-04-25T11:39:34.389Z,51.75
2019-04-25T11:42:04.793Z,51.75
2019-04-25T11:44:35.012Z,51.73
2019-04-25T11:47:06.931Z,51.39
2019-04-25T11:49:35.613Z,50.87
2019-04-25T11:52:05.420Z,50.44
2019-04-25T11:54:34.890Z,50.87
2019-04-25T11:57:05.494Z,50.67
2019-04-25T11:59:34.895Z,50.35
2019-04-25T12:02:05.958Z,49.94
2019-04-25T12:04:35.356Z,49.70
2019-04-25T12:07:07.133Z,50.61
2019-04-25T12:09:35.775Z,51.32
2019-04-25T12:12:06.209Z,51.12
2019-04-25T12:14:35.578Z,50.37
2019-04-25T12:17:05.121Z,49.78
2019-04-25T12:19:37.844Z,48.46
2019-04-25T12:22:05.598Z,45.65
2019-04-25T12:24:34.982Z,43.76
2019-04-25T12:27:04.579Z,43.45
2019-04-25T12:29:33.918Z,43.15
2019-04-25T12:32:04.059Z,43.03
2019-04-25T12:34:33.845Z,42.70
2019-04-25T12:37:03.922Z,43.21
2019-04-25T12:39:34.194Z,42.93
2019-04-25T12:42:04.415Z,42.71
2019-04-25T12:44:35.393Z,42.70
2019-04-25T12:47:06.379Z,41.83
2019-04-25T12:49:35.739Z,40.80
2019-04-25T12:52:50.621Z,41.29
2019-04-25T12:55:19.999Z,41.92
2019-04-25T12:58:48.460Z,41.91
2019-04-25T13:01:17.817Z,41.98
2019-04-25T13:11:33.324Z,45.37
2019-04-25T13:14:03.687Z,45.15
2019-04-25T13:16:34.228Z,45.50
2019-04-25T13:19:13.444Z,45.06
2019-04-25T13:21:34.661Z,44.79
2019-04-25T13:24:04.092Z,45.19
2019-04-25T13:26:35.102Z,45.15
2019-04-25T13:29:06.788Z,44.99
2019-04-25T13:31:40.619Z,45.01
2019-04-25T13:34:14.652Z,45.26
2019-04-25T13:36:44.393Z,45.10
2019-04-25T13:39:18.185Z,44.91
2019-04-25T13:41:47.569Z,44.94
2019-04-25T13:44:16.956Z,45.05
2019-04-25T13:46:46.341Z,44.85
2019-04-25T13:49:15.708Z,44.94
2019-04-25T13:55:43.494Z,45.97
2019-04-25T13:58:14.499Z,46.42
2019-04-25T14:00:44.546Z,46.96
2019-04-25T14:03:13.921Z,47.61
2019-04-25T14:05:43.898Z,47.42
2019-04-25T14:08:14.945Z,47.25
2019-04-25T14:10:47.399Z,47.90
2019-04-25T14:13:16.459Z,47.64
2019-04-25T14:15:47.570Z,47.53
2019-04-25T14:21:39.690Z,48.33
2019-04-25T14:24:19.929Z,49.96
2019-04-25T14:38:11.680Z,54.37
2019-04-25T14:48:14.057Z,56.06
2019-04-25T14:50:43.415Z,56.03
2019-04-25T14:53:12.863Z,56.76
2019-04-25T14:56:02.015Z,56.71
2019-04-25T14:58:32.998Z,56.45
2019-04-25T15:01:02.430Z,56.79
2019-04-25T15:03:31.867Z,57.01
2019-04-25T15:06:01.227Z,56.84
2019-04-25T15:08:32.703Z,56.72
2019-04-25T15:11:02.168Z,56.66
2019-04-25T15:13:31.878Z,56.95
2019-04-25T15:16:01.470Z,58.10
2019-04-25T15:18:31.039Z,58.30
2019-04-25T15:21:00.307Z,59.03
2019-04-25T15:23:29.948Z,60.85
2019-04-25T15:26:00.335Z,60.47
2019-04-25T15:28:29.805Z,60.77
2019-04-25T15:30:59.090Z,61.25
2019-04-25T15:33:28.452Z,61.61
2019-04-25T15:36:17.598Z,62.02
2019-04-25T15:38:54.322Z,63.35
2019-04-25T15:41:43.382Z,62.36
2019-04-25T15:44:30.921Z,61.81
2019-04-25T15:47:02.909Z,62.10
2019-04-25T15:49:32.295Z,62.58
2019-04-25T15:52:01.614Z,61.26
2019-04-25T15:54:31.728Z,60.46
2019-04-25T15:57:01.093Z,59.28
2019-04-25T15:59:30.777Z,58.01
2019-04-25T16:02:07.932Z,57.35
2019-04-25T16:04:32.277Z,55.96
2019-04-25T16:07:01.761Z,54.98
2019-04-25T16:09:31.929Z,54.23
2019-04-25T16:12:01.355Z,54.18
2019-04-25T16:14:31.768Z,53.25
2019-04-25T16:17:01.145Z,52.47
2019-04-25T16:19:31.539Z,52.10
2019-04-25T16:22:00.995Z,51.72
2019-04-25T16:24:30.441Z,50.34
2019-04-25T16:26:59.803Z,50.82
2019-04-25T16:29:31.130Z,50.88
2019-04-25T16:32:01.311Z,50.92
2019-04-25T16:34:30.835Z,50.73
2019-04-25T16:37:00.149Z,50.52
2019-04-25T16:39:31.203Z,51.11
2019-04-25T16:42:00.584Z,50.91
2019-04-25T16:44:29.954Z,51.41
2019-04-25T16:46:59.258Z,51.72
2019-04-25T16:49:29.825Z,52.24
2019-04-25T16:51:59.300Z,52.70
2019-04-25T16:54:29.287Z,52.75
2019-04-25T16:57:00.284Z,53.37
2019-04-25T16:59:29.661Z,53.77
2019-04-25T17:01:59.257Z,53.86
2019-04-25T17:04:29.781Z,54.03
2019-04-25T17:06:59.264Z,54.37
2019-04-25T17:09:30.376Z,54.57
2019-04-25T17:11:59.951Z,54.88
2019-04-25T17:14:31.531Z,55.32
2019-04-25T17:17:14.510Z,55.83
2019-04-25T17:19:48.491Z,56.27
2019-04-25T17:22:18.196Z,56.87
2019-04-25T17:24:47.587Z,57.41
2019-04-25T17:27:17.450Z,57.80
2019-04-25T17:29:46.839Z,58.43
2019-04-25T17:32:24.736Z,58.78
2019-04-25T17:34:55.744Z,59.34
2019-04-25T17:37:26.726Z,60.16
2019-04-25T17:40:12.561Z,61.84
2019-04-25T17:42:41.952Z,63.37
2019-04-25T17:45:12.924Z,64.42
2019-04-25T17:47:53.775Z,65.19
2019-04-25T17:50:13.584Z,65.77
2019-04-25T17:52:43.074Z,66.59
2019-04-25T17:55:12.703Z,67.61
2019-04-25T17:57:42.138Z,68.48
2019-04-25T18:00:19.242Z,69.21
2019-04-25T18:02:58.324Z,69.51
2019-04-25T18:05:19.950Z,70.09
2019-04-25T18:07:49.296Z,70.57
2019-04-25T18:10:18.716Z,70.99
2019-04-25T18:12:48.104Z,71.24
2019-04-25T18:15:19.190Z,71.38
2019-04-25T18:17:48.516Z,71.76
2019-04-25T18:20:22.466Z,72.56
2019-04-25T18:22:55.963Z,73.27
2019-04-25T18:25:29.901Z,73.92
2019-04-25T18:28:03.627Z,74.78
2019-04-25T18:30:33.027Z,76.13
2019-04-25T18:33:13.032Z,77.54
2019-04-25T18:35:44.075Z,78.37
2019-04-25T18:38:29.894Z,79.59
2019-04-25T18:41:09.599Z,80.39
2019-04-25T18:43:43.321Z,81.04
2019-04-25T18:46:14.303Z,81.85
2019-04-25T18:48:44.959Z,82.29
2019-04-25T18:51:14.270Z,82.65
2019-04-25T18:53:53.995Z,83.08
2019-04-25T18:56:25.005Z,83.60
2019-04-25T18:58:56.056Z,83.99
2019-04-25T19:01:35.782Z,84.50
2019-04-25T19:04:10.453Z,84.88
2019-04-25T19:06:51.198Z,85.34
2019-04-25T19:09:11.957Z,85.92
2019-04-25T19:11:41.501Z,86.27
2019-04-25T19:14:11.026Z,86.69
2019-04-25T19:16:41.140Z,87.74
2019-04-25T19:19:10.448Z,87.74
2019-04-25T19:21:41.617Z,88.12
2019-04-25T19:24:11.049Z,88.40
2019-04-25T19:26:42.235Z,88.81
2019-04-25T19:29:12.441Z,88.92
2019-04-25T19:31:42.806Z,89.46
2019-04-25T19:34:12.191Z,89.93
2019-04-25T19:36:42.694Z,90.05
2019-04-25T19:39:13.826Z,90.20
2019-04-25T19:41:45.058Z,90.71
2019-04-25T19:44:16.054Z,90.71
2019-04-25T19:46:47.163Z,91.37
2019-04-25T19:49:16.516Z,91.83
2019-04-25T19:51:45.990Z,91.91
2019-04-25T19:54:15.298Z,92.38
2019-04-25T19:56:45.362Z,92.66
2019-04-25T19:59:14.735Z,93.78
2019-04-25T20:01:45.951Z,93.78
2019-04-25T20:04:16.983Z,93.99
2019-04-25T20:07:04.139Z,93.99
2019-04-25T20:09:40.693Z,95.17
2019-04-25T20:12:10.098Z,95.17
2019-04-25T20:14:39.473Z,95.34
2019-04-25T20:17:08.841Z,95.65
2019-04-25T20:19:38.238Z,96.29
2019-04-25T20:22:08.594Z,96.29
2019-04-25T20:24:37.955Z,97.03
2019-04-25T20:27:07.390Z,97.74
2019-04-25T20:29:36.777Z,97.74
2019-04-25T20:32:07.240Z,97.82
2019-04-25T20:34:36.642Z,98.00
2019-04-25T20:37:06.008Z,98.62
2019-04-25T20:39:35.394Z,98.62
2019-04-25T20:42:04.767Z,98.41
2019-04-25T20:44:36.463Z,98.63
2019-04-25T20:47:05.233Z,98.96
2019-04-25T20:49:34.642Z,99.53
2019-04-25T20:52:04.190Z,99.47
2019-04-25T20:54:33.552Z,99.64
2019-04-25T20:57:02.903Z,99.82
2019-04-25T20:59:32.341Z,100.00
2019-04-25T21:02:01.685Z,100.00
2019-04-25T21:04:41.413Z,100.00
2019-04-25T21:07:11.155Z,100.00
2019-04-25T21:09:41.433Z,100.00
2019-04-25T21:12:10.889Z,100.00
2019-04-25T21:14:49.236Z,100.00
2019-04-25T21:17:20.321Z,100.00
2019-04-25T21:20:03.113Z,100.00
2019-04-25T21:22:32.463Z,100.00
2019-04-25T21:25:02.480Z,100.00
2019-04-25T21:27:32.920Z,100.00
2019-04-25T21:30:02.400Z,100.00
2019-04-25T21:32:34.572Z,100.00
2019-04-25T21:35:05.749Z,100.00
2019-04-25T21:37:35.716Z,100.00
2019-04-25T21:40:13.825Z,100.00
2019-04-25T21:42:51.574Z,100.00
2019-04-25T21:45:21.981Z,100.00
2019-04-25T21:47:52.344Z,100.00
2019-04-25T21:50:21.999Z,100.00
2019-04-25T21:52:52.723Z,100.00
2019-04-25T21:55:22.415Z,100.00
2019-04-25T21:57:52.078Z,100.00
2019-04-25T22:00:32.417Z,100.00
2019-04-25T22:03:04.450Z,100.00
2019-04-25T22:05:34.179Z,100.00
2019-04-25T22:08:04.786Z,100.00
2019-04-25T22:10:34.189Z,100.00
2019-04-25T22:13:11.999Z,100.00
2019-04-25T22:15:34.848Z,100.00
2019-04-25T22:18:04.493Z,100.00
2019-04-25T22:20:33.946Z,100.00
2019-04-25T22:23:03.317Z,100.00
2019-04-25T22:25:32.876Z,100.00
2019-04-25T22:28:03.067Z,100.00
2019-04-25T22:30:32.781Z,100.00
2019-04-25T22:33:09.677Z,100.00
2019-04-25T22:35:49.369Z,100.00
2019-04-25T22:38:18.946Z,100.00
2019-04-25T22:40:48.363Z,100.00
2019-04-25T22:43:17.947Z,100.00
2019-04-25T22:45:47.546Z,100.00
2019-04-25T22:48:19.493Z,100.00
2019-04-25T22:50:49.124Z,100.00
2019-04-25T22:53:23.420Z,100.00
2019-04-25T22:55:49.563Z,100.00
2019-04-25T22:58:18.946Z,100.00
2019-04-25T23:00:48.388Z,100.00
2019-04-25T23:03:35.954Z,100.00
2019-04-25T23:06:05.644Z,100.00
2019-04-25T23:08:35.053Z,100.00
2019-04-25T23:11:04.461Z,100.00
2019-04-25T23:13:33.839Z,100.00
2019-04-25T23:16:04.093Z,100.00
2019-04-25T23:18:34.302Z,100.00
2019-04-25T23:21:04.013Z,100.00
2019-04-25T23:23:34.529Z,100.00
2019-04-25T23:26:06.096Z,100.00
2019-04-25T23:28:37.432Z,100.00
2019-04-25T23:31:11.077Z,100.00
2019-04-25T23:33:40.447Z,100.00
2019-04-25T23:36:11.108Z,100.00
2019-04-25T23:38:40.527Z,100.00
2019-04-25T23:41:10.079Z,100.00
2019-04-25T23:43:39.461Z,100.00
2019-04-25T23:46:09.060Z,100.00
2019-04-25T23:48:39.492Z,100.00
2019-04-25T23:51:09.028Z,100.00
2019-04-25T23:53:39.531Z,100.00
2019-04-25T23:56:09.148Z,100.00
2019-04-25T23:58:38.853Z,100.00
